Terminal Aerodrome Forecast
Issued by NWS

Home | Current Version | Previous Version | Text Only | Print | Product List | Glossary On
Versions: 1 2 3 4 5 6 7 8 9 10 11 12 13 14 15 16 17 18 19 20 21 22
000
FTUS43 KDLH 271100 RRA
TAFHIB
TAF
KHIB 271154Z 2712/2812 00000KT 6SM BR FEW080
      TEMPO 2712/2713 1 1/2SM BR SCT004
     FM271400 28006KT P6SM SCT100
     FM271900 30010G20KT P6SM VCTS SCT060CB
     FM280300 VRB03KT P6SM FEW050
     FM280900 15009KT P6SM SCT070 BKN150=

USA.gov is the U.S. government's official web portal to all federal, state and local government web resources and services.